Terminal Aerodrome Forecast
Issued by NWS

Home | Current Version | Previous Version | Text Only | Print | Product List | Glossary On
Versions: 1 2 3 4 5 6 7 8 9 10 11 12 13 14 15 16 17 18 19 20 21 22 23 24 25 26
000
FTUS44 KEWX 231400 AAB
TAFSSF
TAF AMD
KSSF 231404Z 2314/2412 13006KT P6SM SCT008 SCT030
     FM231500 15007KT P6SM SCT015 BKN030
     FM231900 16012KT P6SM BKN040
     FM240800 14010KT P6SM OVC015=

USA.gov is the U.S. government's official web portal to all federal, state and local government web resources and services.